Nova Cantu, Brazil
Current Conditions -  °F | °C
As of 1:25 AM on Wednesday 26 Nov 2014 (Local Time) from SBCA Reporting Station
Scattered Clouds Scattered Clouds  
Wind Chill: 66°   Ceiling: Unl
Heat Index: 66°   Visibility: 6mi
Dew Point: 64°   Wind: 12mph
Humidity: 94%   Direction: 30°NNE
Pressure: 29.83"   Gusts: NA
Location:  24.67°S, 52.57°W
Report Text: SBCA 260325Z 03010KT 9999 FEW010 SCT070 19/18 Q1010
Loading
Personal Weather Stations






























Interactive Weather Map New forecast layout! Learn more

10-Day Weather Forecast

Advertisements
Track Severe Weather on mobile